sensor_id;sensor_type;location;lat;lon;timestamp;pressure;altitude;pressure_sealevel;temperature;humidity
73624;BME280;61921;53.226;-1.296;2023-02-03T00:01:58;101259.47;;;10.83;77.64
73624;BME280;61921;53.226;-1.296;2023-02-03T00:04:23;101252.97;;;10.81;77.92
73624;BME280;61921;53.226;-1.296;2023-02-03T00:06:48;101250.53;;;10.86;77.79
73624;BME280;61921;53.226;-1.296;2023-02-03T00:09:14;101252.15;;;10.87;77.85
73624;BME280;61921;53.226;-1.296;2023-02-03T00:11:40;101263.25;;;10.87;77.78
73624;BME280;61921;53.226;-1.296;2023-02-03T00:14:06;101254.77;;;10.94;77.81
73624;BME280;61921;53.226;-1.296;2023-02-03T00:16:30;101254.49;;;10.92;77.85
73624;BME280;61921;53.226;-1.296;2023-02-03T00:18:56;101242.42;;;10.97;77.38
73624;BME280;61921;53.226;-1.296;2023-02-03T00:21:21;101245.58;;;11.01;77.35
73624;BME280;61921;53.226;-1.296;2023-02-03T00:23:46;101239.29;;;11.02;77.38
73624;BME280;61921;53.226;-1.296;2023-02-03T00:26:13;101242.11;;;10.98;77.75
73624;BME280;61921;53.226;-1.296;2023-02-03T00:28:37;101238.00;;;11.04;77.68
73624;BME280;61921;53.226;-1.296;2023-02-03T00:31:03;101248.06;;;11.04;77.65
73624;BME280;61921;53.226;-1.296;2023-02-03T00:33:28;101253.11;;;11.01;77.83
73624;BME280;61921;53.226;-1.296;2023-02-03T00:35:53;101254.79;;;11.02;77.84
73624;BME280;61921;53.226;-1.296;2023-02-03T00:38:19;101265.59;;;11.10;77.68
73624;BME280;61921;53.226;-1.296;2023-02-03T00:40:51;101263.09;;;11.05;77.87
73624;BME280;61921;53.226;-1.296;2023-02-03T00:43:10;101269.82;;;11.10;77.98
73624;BME280;61921;53.226;-1.296;2023-02-03T00:45:35;101270.26;;;11.10;77.67
73624;BME280;61921;53.226;-1.296;2023-02-03T00:48:00;101272.10;;;11.09;77.86
73624;BME280;61921;53.226;-1.296;2023-02-03T00:50:25;101284.71;;;11.10;77.92
73624;BME280;61921;53.226;-1.296;2023-02-03T00:52:51;101296.24;;;11.17;77.73
73624;BME280;61921;53.226;-1.296;2023-02-03T00:55:16;101300.97;;;11.17;77.73
73624;BME280;61921;53.226;-1.296;2023-02-03T00:57:42;101301.43;;;11.16;77.80
73624;BME280;61921;53.226;-1.296;2023-02-03T01:00:09;101309.89;;;11.16;77.78
73624;BME280;61921;53.226;-1.296;2023-02-03T01:02:33;101306.20;;;11.10;78.14
73624;BME280;61921;53.226;-1.296;2023-02-03T01:04:58;101305.60;;;11.13;78.20
73624;BME280;61921;53.226;-1.296;2023-02-03T01:07:23;101304.56;;;11.19;78.17
73624;BME280;61921;53.226;-1.296;2023-02-03T01:09:49;101295.71;;;11.19;77.96
73624;BME280;61921;53.226;-1.296;2023-02-03T01:12:14;101290.55;;;11.25;77.87
73624;BME280;61921;53.226;-1.296;2023-02-03T01:14:39;101301.64;;;11.23;77.83
73624;BME280;61921;53.226;-1.296;2023-02-03T01:17:05;101298.88;;;11.23;77.84
73624;BME280;61921;53.226;-1.296;2023-02-03T01:19:30;101289.26;;;11.23;78.09
73624;BME280;61921;53.226;-1.296;2023-02-03T01:21:56;101283.61;;;11.13;78.43
73624;BME280;61921;53.226;-1.296;2023-02-03T01:24:21;101287.72;;;11.14;78.36
73624;BME280;61921;53.226;-1.296;2023-02-03T01:26:47;101290.28;;;11.12;78.57
73624;BME280;61921;53.226;-1.296;2023-02-03T01:29:12;101282.10;;;11.18;78.44
73624;BME280;61921;53.226;-1.296;2023-02-03T01:31:39;101288.53;;;11.24;78.29
73624;BME280;61921;53.226;-1.296;2023-02-03T01:34:03;101288.87;;;11.14;78.64
73624;BME280;61921;53.226;-1.296;2023-02-03T01:36:30;101281.58;;;11.16;78.77
73624;BME280;61921;53.226;-1.296;2023-02-03T01:38:54;101280.82;;;11.19;78.88
73624;BME280;61921;53.226;-1.296;2023-02-03T01:41:21;101292.22;;;11.02;79.68
73624;BME280;61921;53.226;-1.296;2023-02-03T01:43:46;101296.25;;;11.01;79.96
73624;BME280;61921;53.226;-1.296;2023-02-03T01:46:23;101299.04;;;10.88;80.67
73624;BME280;61921;53.226;-1.296;2023-02-03T01:48:35;101305.78;;;10.89;80.82
73624;BME280;61921;53.226;-1.296;2023-02-03T01:51:01;101308.89;;;10.91;80.72
73624;BME280;61921;53.226;-1.296;2023-02-03T01:53:26;101304.64;;;10.95;80.73
73624;BME280;61921;53.226;-1.296;2023-02-03T01:55:51;101305.93;;;11.04;80.32
73624;BME280;61921;53.226;-1.296;2023-02-03T01:58:20;101307.45;;;11.11;80.07
73624;BME280;61921;53.226;-1.296;2023-02-03T02:00:42;101303.50;;;11.10;80.08
73624;BME280;61921;53.226;-1.296;2023-02-03T02:03:08;101314.36;;;10.96;80.64
73624;BME280;61921;53.226;-1.296;2023-02-03T02:05:37;101311.12;;;10.99;80.76
73624;BME280;61921;53.226;-1.296;2023-02-03T02:07:59;101301.77;;;10.99;80.83
73624;BME280;61921;53.226;-1.296;2023-02-03T02:10:24;101303.24;;;10.90;81.26
73624;BME280;61921;53.226;-1.296;2023-02-03T02:12:49;101299.30;;;10.87;81.56
73624;BME280;61921;53.226;-1.296;2023-02-03T02:15:15;101301.57;;;10.75;82.26
73624;BME280;61921;53.226;-1.296;2023-02-03T02:17:53;101297.51;;;10.72;82.62
73624;BME280;61921;53.226;-1.296;2023-02-03T02:20:22;101305.37;;;10.71;82.96
73624;BME280;61921;53.226;-1.296;2023-02-03T02:22:38;101292.47;;;10.71;83.06
73624;BME280;61921;53.226;-1.296;2023-02-03T02:25:13;101299.36;;;10.69;83.56
73624;BME280;61921;53.226;-1.296;2023-02-03T02:27:35;101290.03;;;10.79;83.30
73624;BME280;61921;53.226;-1.296;2023-02-03T02:32:19;101281.00;;;10.73;83.87
73624;BME280;61921;53.226;-1.296;2023-02-03T02:34:46;101281.00;;;10.70;84.11
73624;BME280;61921;53.226;-1.296;2023-02-03T02:37:06;101288.84;;;10.67;84.40
73624;BME280;61921;53.226;-1.296;2023-02-03T02:39:37;101298.03;;;10.66;84.56
73624;BME280;61921;53.226;-1.296;2023-02-03T02:41:59;101294.51;;;10.63;84.94
73624;BME280;61921;53.226;-1.296;2023-02-03T02:44:24;101296.22;;;10.66;84.98
73624;BME280;61921;53.226;-1.296;2023-02-03T02:46:47;101296.31;;;10.74;84.79
73624;BME280;61921;53.226;-1.296;2023-02-03T02:49:13;101289.79;;;10.70;85.14
73624;BME280;61921;53.226;-1.296;2023-02-03T02:51:37;101283.65;;;10.69;85.27
73624;BME280;61921;53.226;-1.296;2023-02-03T02:54:04;101283.27;;;10.73;85.20
73624;BME280;61921;53.226;-1.296;2023-02-03T02:56:28;101276.71;;;10.77;85.05
73624;BME280;61921;53.226;-1.296;2023-02-03T02:58:53;101271.15;;;10.78;84.98
73624;BME280;61921;53.226;-1.296;2023-02-03T03:01:17;101274.04;;;10.76;84.92
73624;BME280;61921;53.226;-1.296;2023-02-03T03:03:43;101277.71;;;10.73;85.06
73624;BME280;61921;53.226;-1.296;2023-02-03T03:06:10;101268.04;;;10.77;84.94
73624;BME280;61921;53.226;-1.296;2023-02-03T03:08:37;101269.11;;;10.78;84.73
73624;BME280;61921;53.226;-1.296;2023-02-03T03:10:59;101268.20;;;10.74;84.84
73624;BME280;61921;53.226;-1.296;2023-02-03T03:13:28;101266.17;;;10.80;84.54
73624;BME280;61921;53.226;-1.296;2023-02-03T03:15:50;101272.95;;;10.85;84.15
73624;BME280;61921;53.226;-1.296;2023-02-03T03:18:19;101278.81;;;10.73;84.64
73624;BME280;61921;53.226;-1.296;2023-02-03T03:20:41;101282.90;;;10.78;84.56
73624;BME280;61921;53.226;-1.296;2023-02-03T03:23:08;101287.75;;;10.84;84.32
73624;BME280;61921;53.226;-1.296;2023-02-03T03:25:38;101287.94;;;10.82;84.32
73624;BME280;61921;53.226;-1.296;2023-02-03T03:28:01;101284.30;;;10.70;84.91
73624;BME280;61921;53.226;-1.296;2023-02-03T03:30:24;101288.48;;;10.70;85.11
73624;BME280;61921;53.226;-1.296;2023-02-03T03:32:47;101294.80;;;10.69;85.30
73624;BME280;61921;53.226;-1.296;2023-02-03T03:35:13;101308.75;;;10.66;85.56
73624;BME280;61921;53.226;-1.296;2023-02-03T03:37:42;101307.13;;;10.67;85.81
73624;BME280;61921;53.226;-1.296;2023-02-03T03:40:09;101310.94;;;10.59;86.26
73624;BME280;61921;53.226;-1.296;2023-02-03T03:42:33;101307.19;;;10.60;86.61
73624;BME280;61921;53.226;-1.296;2023-02-03T03:44:59;101312.52;;;10.60;86.76
73624;BME280;61921;53.226;-1.296;2023-02-03T03:47:24;101324.10;;;10.53;87.22
73624;BME280;61921;53.226;-1.296;2023-02-03T03:49:46;101321.03;;;10.53;87.45
73624;BME280;61921;53.226;-1.296;2023-02-03T03:52:15;101329.35;;;10.54;87.53
73624;BME280;61921;53.226;-1.296;2023-02-03T03:54:37;101328.13;;;10.55;87.41
73624;BME280;61921;53.226;-1.296;2023-02-03T03:57:04;101323.58;;;10.55;87.51
73624;BME280;61921;53.226;-1.296;2023-02-03T03:59:29;101318.82;;;10.57;87.57
73624;BME280;61921;53.226;-1.296;2023-02-03T04:01:52;101317.07;;;10.53;87.76
73624;BME280;61921;53.226;-1.296;2023-02-03T04:04:18;101314.36;;;10.55;87.84
73624;BME280;61921;53.226;-1.296;2023-02-03T04:06:43;101326.46;;;10.53;88.12
73624;BME280;61921;53.226;-1.296;2023-02-03T04:09:09;101332.36;;;10.47;88.26
73624;BME280;61921;53.226;-1.296;2023-02-03T04:11:34;101330.48;;;10.49;88.38
73624;BME280;61921;53.226;-1.296;2023-02-03T04:13:59;101338.36;;;10.42;88.92
73624;BME280;61921;53.226;-1.296;2023-02-03T04:16:25;101344.82;;;10.40;88.93
73624;BME280;61921;53.226;-1.296;2023-02-03T04:18:50;101357.93;;;10.41;88.94
73624;BME280;61921;53.226;-1.296;2023-02-03T04:21:15;101370.46;;;10.36;89.24
73624;BME280;61921;53.226;-1.296;2023-02-03T04:23:41;101368.01;;;10.39;89.35
73624;BME280;61921;53.226;-1.296;2023-02-03T04:26:07;101393.00;;;10.33;89.43
73624;BME280;61921;53.226;-1.296;2023-02-03T04:28:32;101382.73;;;10.38;89.42
73624;BME280;61921;53.226;-1.296;2023-02-03T04:30:59;101389.05;;;10.33;89.82
73624;BME280;61921;53.226;-1.296;2023-02-03T04:33:23;101388.64;;;10.39;89.72
73624;BME280;61921;53.226;-1.296;2023-02-03T04:35:48;101385.38;;;10.37;89.97
73624;BME280;61921;53.226;-1.296;2023-02-03T04:38:13;101394.87;;;10.37;90.27
73624;BME280;61921;53.226;-1.296;2023-02-03T04:40:39;101397.14;;;10.40;90.19
73624;BME280;61921;53.226;-1.296;2023-02-03T04:43:06;101403.36;;;10.39;90.48
73624;BME280;61921;53.226;-1.296;2023-02-03T04:45:30;101402.29;;;10.45;90.40
73624;BME280;61921;53.226;-1.296;2023-02-03T04:47:55;101401.91;;;10.49;90.29
73624;BME280;61921;53.226;-1.296;2023-02-03T04:50:20;101409.32;;;10.49;90.47
73624;BME280;61921;53.226;-1.296;2023-02-03T04:52:46;101415.15;;;10.48;90.36
73624;BME280;61921;53.226;-1.296;2023-02-03T04:55:11;101418.61;;;10.53;90.24
73624;BME280;61921;53.226;-1.296;2023-02-03T04:57:37;101425.09;;;10.35;91.51
73624;BME280;61921;53.226;-1.296;2023-02-03T05:00:02;101429.66;;;10.30;91.84
73624;BME280;61921;53.226;-1.296;2023-02-03T05:02:27;101440.26;;;10.34;92.05
73624;BME280;61921;53.226;-1.296;2023-02-03T05:04:53;101435.67;;;10.45;91.38
73624;BME280;61921;53.226;-1.296;2023-02-03T05:07:18;101438.28;;;10.43;91.73
73624;BME280;61921;53.226;-1.296;2023-02-03T05:09:44;101435.58;;;10.39;91.98
73624;BME280;61921;53.226;-1.296;2023-02-03T05:12:09;101426.58;;;10.35;92.47
73624;BME280;61921;53.226;-1.296;2023-02-03T05:14:35;101426.35;;;10.35;92.38
73624;BME280;61921;53.226;-1.296;2023-02-03T05:17:00;101428.73;;;10.38;92.58
73624;BME280;61921;53.226;-1.296;2023-02-03T05:19:25;101424.98;;;10.31;92.88
73624;BME280;61921;53.226;-1.296;2023-02-03T05:21:51;101434.42;;;10.31;92.95
73624;BME280;61921;53.226;-1.296;2023-02-03T05:24:16;101442.89;;;10.20;93.72
73624;BME280;61921;53.226;-1.296;2023-02-03T05:26:42;101442.39;;;10.30;93.48
73624;BME280;61921;53.226;-1.296;2023-02-03T05:29:08;101446.45;;;10.21;93.89
73624;BME280;61921;53.226;-1.296;2023-02-03T05:31:32;101447.69;;;10.23;94.01
73624;BME280;61921;53.226;-1.296;2023-02-03T05:33:58;101452.43;;;10.25;93.71
73624;BME280;61921;53.226;-1.296;2023-02-03T05:36:23;101452.07;;;10.29;93.48
73624;BME280;61921;53.226;-1.296;2023-02-03T05:38:49;101459.00;;;10.32;93.29
73624;BME280;61921;53.226;-1.296;2023-02-03T05:41:14;101461.05;;;10.35;93.05
73624;BME280;61921;53.226;-1.296;2023-02-03T05:43:40;101439.39;;;10.33;92.96
73624;BME280;61921;53.226;-1.296;2023-02-03T05:46:06;101431.41;;;10.34;92.81
73624;BME280;61921;53.226;-1.296;2023-02-03T05:48:31;101422.66;;;10.28;92.94
73624;BME280;61921;53.226;-1.296;2023-02-03T05:50:56;101418.03;;;10.29;92.78
73624;BME280;61921;53.226;-1.296;2023-02-03T05:53:21;101412.38;;;10.29;93.01
73624;BME280;61921;53.226;-1.296;2023-02-03T05:55:47;101410.01;;;10.30;92.92
73624;BME280;61921;53.226;-1.296;2023-02-03T05:58:12;101402.96;;;10.23;93.03
73624;BME280;61921;53.226;-1.296;2023-02-03T06:00:38;101401.19;;;10.20;93.37
73624;BME280;61921;53.226;-1.296;2023-02-03T06:03:04;101402.56;;;10.20;93.59
73624;BME280;61921;53.226;-1.296;2023-02-03T06:05:30;101396.18;;;10.21;93.57
73624;BME280;61921;53.226;-1.296;2023-02-03T06:07:54;101403.49;;;10.20;93.43
73624;BME280;61921;53.226;-1.296;2023-02-03T06:10:20;101400.34;;;10.17;93.43
73624;BME280;61921;53.226;-1.296;2023-02-03T06:12:45;101404.57;;;10.21;93.40
73624;BME280;61921;53.226;-1.296;2023-02-03T06:15:10;101412.70;;;10.20;93.33
73624;BME280;61921;53.226;-1.296;2023-02-03T06:17:36;101412.54;;;10.20;93.40
73624;BME280;61921;53.226;-1.296;2023-02-03T06:20:01;101414.99;;;10.22;93.48
73624;BME280;61921;53.226;-1.296;2023-02-03T06:22:27;101420.57;;;10.19;93.29
73624;BME280;61921;53.226;-1.296;2023-02-03T06:24:52;101431.42;;;10.20;93.55
73624;BME280;61921;53.226;-1.296;2023-02-03T06:27:17;101434.64;;;10.27;93.28
73624;BME280;61921;53.226;-1.296;2023-02-03T06:29:43;101443.66;;;10.25;93.48
73624;BME280;61921;53.226;-1.296;2023-02-03T06:32:09;101451.90;;;10.24;93.55
73624;BME280;61921;53.226;-1.296;2023-02-03T06:34:34;101454.31;;;10.25;93.76
73624;BME280;61921;53.226;-1.296;2023-02-03T06:37:00;101452.66;;;10.29;93.55
73624;BME280;61921;53.226;-1.296;2023-02-03T06:39:24;101446.23;;;10.30;93.56
73624;BME280;61921;53.226;-1.296;2023-02-03T06:41:50;101451.68;;;10.29;93.69
73624;BME280;61921;53.226;-1.296;2023-02-03T06:44:16;101451.48;;;10.23;93.64
73624;BME280;61921;53.226;-1.296;2023-02-03T06:46:41;101454.63;;;10.26;93.68
73624;BME280;61921;53.226;-1.296;2023-02-03T06:49:07;101452.59;;;10.26;93.38
73624;BME280;61921;53.226;-1.296;2023-02-03T06:51:32;101457.01;;;10.29;93.64
73624;BME280;61921;53.226;-1.296;2023-02-03T06:53:58;101460.80;;;10.33;93.53
73624;BME280;61921;53.226;-1.296;2023-02-03T06:56:23;101472.24;;;10.31;93.72
73624;BME280;61921;53.226;-1.296;2023-02-03T06:58:49;101478.49;;;10.27;93.95
73624;BME280;61921;53.226;-1.296;2023-02-03T07:01:14;101487.59;;;10.28;93.92
73624;BME280;61921;53.226;-1.296;2023-02-03T07:03:39;101480.16;;;10.29;93.93
73624;BME280;61921;53.226;-1.296;2023-02-03T07:06:06;101492.86;;;10.28;94.05
73624;BME280;61921;53.226;-1.296;2023-02-03T07:08:30;101484.58;;;10.41;93.73
73624;BME280;61921;53.226;-1.296;2023-02-03T07:10:56;101483.90;;;10.39;93.72
73624;BME280;61921;53.226;-1.296;2023-02-03T07:13:21;101472.24;;;10.45;93.67
73624;BME280;61921;53.226;-1.296;2023-02-03T07:15:46;101453.40;;;10.41;93.86
73624;BME280;61921;53.226;-1.296;2023-02-03T07:18:11;101450.08;;;10.43;93.78
73624;BME280;61921;53.226;-1.296;2023-02-03T07:20:36;101443.86;;;10.40;94.05
73624;BME280;61921;53.226;-1.296;2023-02-03T07:23:01;101437.93;;;10.40;94.27
73624;BME280;61921;53.226;-1.296;2023-02-03T07:25:27;101441.22;;;10.41;94.33
73624;BME280;61921;53.226;-1.296;2023-02-03T07:27:53;101442.47;;;10.46;94.10
73624;BME280;61921;53.226;-1.296;2023-02-03T07:30:18;101445.95;;;10.44;94.21
73624;BME280;61921;53.226;-1.296;2023-02-03T07:32:46;101444.71;;;10.46;94.05
73624;BME280;61921;53.226;-1.296;2023-02-03T07:35:09;101448.86;;;10.53;93.75
73624;BME280;61921;53.226;-1.296;2023-02-03T07:37:34;101454.76;;;10.51;93.82
73624;BME280;61921;53.226;-1.296;2023-02-03T07:39:59;101460.46;;;10.56;93.51
73624;BME280;61921;53.226;-1.296;2023-02-03T07:42:25;101469.31;;;10.56;93.44
73624;BME280;61921;53.226;-1.296;2023-02-03T07:44:50;101484.73;;;10.56;93.47
73624;BME280;61921;53.226;-1.296;2023-02-03T07:47:16;101496.98;;;10.61;93.28
73624;BME280;61921;53.226;-1.296;2023-02-03T07:49:41;101509.26;;;10.66;93.05
73624;BME280;61921;53.226;-1.296;2023-02-03T07:52:07;101518.75;;;10.67;93.01
73624;BME280;61921;53.226;-1.296;2023-02-03T07:54:32;101527.30;;;10.74;92.73
73624;BME280;61921;53.226;-1.296;2023-02-03T07:56:57;101531.14;;;10.74;92.71
73624;BME280;61921;53.226;-1.296;2023-02-03T07:59:23;101536.28;;;10.76;92.50
73624;BME280;61921;53.226;-1.296;2023-02-03T08:01:48;101543.35;;;10.73;92.47
73624;BME280;61921;53.226;-1.296;2023-02-03T08:04:14;101544.15;;;10.75;92.43
73624;BME280;61921;53.226;-1.296;2023-02-03T08:06:39;101546.02;;;10.79;92.12
73624;BME280;61921;53.226;-1.296;2023-02-03T08:09:05;101559.94;;;10.73;92.25
73624;BME280;61921;53.226;-1.296;2023-02-03T08:11:30;101568.40;;;10.68;92.27
73624;BME280;61921;53.226;-1.296;2023-02-03T08:13:55;101578.41;;;10.67;92.28
73624;BME280;61921;53.226;-1.296;2023-02-03T08:16:21;101584.51;;;10.72;92.06
73624;BME280;61921;53.226;-1.296;2023-02-03T08:18:46;101595.02;;;10.70;92.06
73624;BME280;61921;53.226;-1.296;2023-02-03T08:21:11;101592.11;;;10.69;92.07
73624;BME280;61921;53.226;-1.296;2023-02-03T08:23:37;101598.20;;;10.70;92.14
73624;BME280;61921;53.226;-1.296;2023-02-03T08:26:02;101594.14;;;10.70;92.14
73624;BME280;61921;53.226;-1.296;2023-02-03T08:28:28;101607.28;;;10.74;91.98
73624;BME280;61921;53.226;-1.296;2023-02-03T08:30:53;101603.37;;;10.75;91.89
73624;BME280;61921;53.226;-1.296;2023-02-03T08:33:18;101606.21;;;10.71;91.97
73624;BME280;61921;53.226;-1.296;2023-02-03T08:35:45;101611.37;;;10.76;91.79
73624;BME280;61921;53.226;-1.296;2023-02-03T08:38:09;101619.66;;;10.72;91.94
73624;BME280;61921;53.226;-1.296;2023-02-03T08:40:35;101622.92;;;10.80;91.52
73624;BME280;61921;53.226;-1.296;2023-02-03T08:43:00;101626.61;;;10.79;91.61
73624;BME280;61921;53.226;-1.296;2023-02-03T08:45:25;101626.14;;;10.82;91.50
73624;BME280;61921;53.226;-1.296;2023-02-03T08:47:51;101632.98;;;10.84;91.39
73624;BME280;61921;53.226;-1.296;2023-02-03T08:50:16;101642.50;;;10.83;91.35
73624;BME280;61921;53.226;-1.296;2023-02-03T08:52:42;101645.40;;;10.84;91.32
73624;BME280;61921;53.226;-1.296;2023-02-03T08:55:08;101643.49;;;10.88;91.11
73624;BME280;61921;53.226;-1.296;2023-02-03T08:57:33;101646.89;;;10.89;91.05
73624;BME280;61921;53.226;-1.296;2023-02-03T08:59:58;101650.51;;;10.89;91.09
73624;BME280;61921;53.226;-1.296;2023-02-03T09:02:23;101662.77;;;10.89;91.23
73624;BME280;61921;53.226;-1.296;2023-02-03T09:04:49;101664.28;;;10.86;91.45
73624;BME280;61921;53.226;-1.296;2023-02-03T09:07:14;101684.16;;;10.87;91.55
73624;BME280;61921;53.226;-1.296;2023-02-03T09:09:40;101688.52;;;10.86;91.76
73624;BME280;61921;53.226;-1.296;2023-02-03T09:12:07;101698.33;;;10.88;91.79
73624;BME280;61921;53.226;-1.296;2023-02-03T09:14:31;101696.19;;;10.88;91.82
73624;BME280;61921;53.226;-1.296;2023-02-03T09:16:56;101696.04;;;10.87;91.95
73624;BME280;61921;53.226;-1.296;2023-02-03T09:19:21;101687.61;;;10.88;92.02
73624;BME280;61921;53.226;-1.296;2023-02-03T09:21:47;101688.08;;;10.91;91.98
73624;BME280;61921;53.226;-1.296;2023-02-03T09:24:12;101699.44;;;10.93;92.06
73624;BME280;61921;53.226;-1.296;2023-02-03T09:26:37;101698.00;;;10.93;92.12
73624;BME280;61921;53.226;-1.296;2023-02-03T09:29:03;101706.22;;;10.96;92.11
73624;BME280;61921;53.226;-1.296;2023-02-03T09:31:28;101710.83;;;11.01;92.17
73624;BME280;61921;53.226;-1.296;2023-02-03T09:33:54;101711.13;;;11.05;91.96
73624;BME280;61921;53.226;-1.296;2023-02-03T09:36:19;101713.76;;;11.20;91.45
73624;BME280;61921;53.226;-1.296;2023-02-03T09:38:44;101719.46;;;11.26;91.19
73624;BME280;61921;53.226;-1.296;2023-02-03T09:41:20;101721.97;;;11.23;91.50
73624;BME280;61921;53.226;-1.296;2023-02-03T09:43:39;101720.53;;;11.24;91.41
73624;BME280;61921;53.226;-1.296;2023-02-03T09:46:05;101723.72;;;11.33;91.12
73624;BME280;61921;53.226;-1.296;2023-02-03T09:48:30;101728.02;;;11.38;90.98
73624;BME280;61921;53.226;-1.296;2023-02-03T09:50:52;101738.41;;;11.37;90.76
73624;BME280;61921;53.226;-1.296;2023-02-03T09:53:25;101739.53;;;11.45;90.53
73624;BME280;61921;53.226;-1.296;2023-02-03T09:55:43;101749.55;;;11.45;90.62
73624;BME280;61921;53.226;-1.296;2023-02-03T09:58:10;101748.79;;;11.57;90.09
73624;BME280;61921;53.226;-1.296;2023-02-03T10:00:35;101751.35;;;11.55;90.32
73624;BME280;61921;53.226;-1.296;2023-02-03T10:03:02;101751.58;;;11.58;90.44
73624;BME280;61921;53.226;-1.296;2023-02-03T10:05:29;101755.73;;;11.65;90.18
73624;BME280;61921;53.226;-1.296;2023-02-03T10:07:57;101761.87;;;11.63;90.09
73624;BME280;61921;53.226;-1.296;2023-02-03T10:10:20;101764.15;;;11.70;89.94
73624;BME280;61921;53.226;-1.296;2023-02-03T10:12:48;101770.63;;;11.67;90.15
73624;BME280;61921;53.226;-1.296;2023-02-03T10:15:26;101778.08;;;11.74;89.92
73624;BME280;61921;53.226;-1.296;2023-02-03T10:17:34;101785.40;;;11.69;90.43
73624;BME280;61921;53.226;-1.296;2023-02-03T10:20:01;101790.25;;;11.73;90.42
73624;BME280;61921;53.226;-1.296;2023-02-03T10:22:24;101792.80;;;11.89;89.49
73624;BME280;61921;53.226;-1.296;2023-02-03T10:24:51;101792.22;;;11.91;89.67
73624;BME280;61921;53.226;-1.296;2023-02-03T10:27:17;101796.73;;;11.91;89.48
73624;BME280;61921;53.226;-1.296;2023-02-03T10:29:40;101791.39;;;11.95;89.13
73624;BME280;61921;53.226;-1.296;2023-02-03T10:32:07;101782.84;;;11.97;89.28
73624;BME280;61921;53.226;-1.296;2023-02-03T10:34:28;101776.29;;;12.09;88.86
73624;BME280;61921;53.226;-1.296;2023-02-03T10:36:55;101777.08;;;12.20;88.42
73624;BME280;61921;53.226;-1.296;2023-02-03T10:39:28;101780.04;;;12.28;87.45
73624;BME280;61921;53.226;-1.296;2023-02-03T10:41:44;101781.64;;;12.28;87.66
73624;BME280;61921;53.226;-1.296;2023-02-03T10:44:12;101786.24;;;12.37;87.30
73624;BME280;61921;53.226;-1.296;2023-02-03T10:46:37;101791.86;;;12.37;87.04
73624;BME280;61921;53.226;-1.296;2023-02-03T10:49:00;101802.24;;;12.39;86.90
73624;BME280;61921;53.226;-1.296;2023-02-03T10:51:27;101810.03;;;12.60;86.55
73624;BME280;61921;53.226;-1.296;2023-02-03T10:53:51;101808.79;;;12.61;86.35
73624;BME280;61921;53.226;-1.296;2023-02-03T10:56:17;101814.17;;;12.66;86.21
73624;BME280;61921;53.226;-1.296;2023-02-03T10:58:47;101817.51;;;12.56;86.17
73624;BME280;61921;53.226;-1.296;2023-02-03T11:01:10;101818.87;;;12.51;86.13
73624;BME280;61921;53.226;-1.296;2023-02-03T11:03:33;101829.62;;;12.72;86.06
73624;BME280;61921;53.226;-1.296;2023-02-03T11:06:06;101828.98;;;12.63;86.03
73624;BME280;61921;53.226;-1.296;2023-02-03T11:08:29;101831.22;;;12.68;85.80
73624;BME280;61921;53.226;-1.296;2023-02-03T11:10:49;101835.57;;;12.54;86.71
73624;BME280;61921;53.226;-1.296;2023-02-03T11:13:18;101843.60;;;12.77;85.52
73624;BME280;61921;53.226;-1.296;2023-02-03T11:15:51;101839.26;;;12.83;85.00
73624;BME280;61921;53.226;-1.296;2023-02-03T11:18:20;101840.16;;;12.68;85.21
73624;BME280;61921;53.226;-1.296;2023-02-03T11:20:30;101846.37;;;12.83;85.00
73624;BME280;61921;53.226;-1.296;2023-02-03T11:22:55;101851.15;;;12.80;85.34
73624;BME280;61921;53.226;-1.296;2023-02-03T11:25:25;101846.69;;;13.04;84.54
73624;BME280;61921;53.226;-1.296;2023-02-03T11:27:46;101846.81;;;12.96;84.49
73624;BME280;61921;53.226;-1.296;2023-02-03T11:30:15;101840.25;;;13.03;83.85
73624;BME280;61921;53.226;-1.296;2023-02-03T11:32:39;101847.69;;;12.93;84.02
73624;BME280;61921;53.226;-1.296;2023-02-03T11:35:12;101845.93;;;12.83;84.71
73624;BME280;61921;53.226;-1.296;2023-02-03T11:37:31;101841.54;;;12.92;84.28
73624;BME280;61921;53.226;-1.296;2023-02-03T11:39:55;101839.52;;;12.87;83.87
73624;BME280;61921;53.226;-1.296;2023-02-03T11:42:21;101850.87;;;12.98;82.71
73624;BME280;61921;53.226;-1.296;2023-02-03T11:44:44;101838.66;;;13.06;82.90
73624;BME280;61921;53.226;-1.296;2023-02-03T11:47:11;101848.75;;;13.16;82.94
73624;BME280;61921;53.226;-1.296;2023-02-03T11:49:48;101849.20;;;13.22;82.72
73624;BME280;61921;53.226;-1.296;2023-02-03T11:52:08;101857.67;;;12.97;82.64
73624;BME280;61921;53.226;-1.296;2023-02-03T11:54:29;101852.87;;;12.94;83.11
73624;BME280;61921;53.226;-1.296;2023-02-03T11:57:04;101849.38;;;13.14;82.52
73624;BME280;61921;53.226;-1.296;2023-02-03T11:59:27;101861.71;;;13.25;82.29
73624;BME280;61921;53.226;-1.296;2023-02-03T12:01:54;101862.51;;;13.27;82.56
73624;BME280;61921;53.226;-1.296;2023-02-03T12:04:18;101863.23;;;13.33;82.48
73624;BME280;61921;53.226;-1.296;2023-02-03T12:06:47;101864.48;;;13.31;82.24
73624;BME280;61921;53.226;-1.296;2023-02-03T12:09:10;101864.44;;;13.40;81.72
73624;BME280;61921;53.226;-1.296;2023-02-03T12:11:33;101863.80;;;13.57;81.28
73624;BME280;61921;53.226;-1.296;2023-02-03T12:13:59;101863.33;;;13.37;81.19
73624;BME280;61921;53.226;-1.296;2023-02-03T12:16:28;101859.02;;;13.40;81.38
73624;BME280;61921;53.226;-1.296;2023-02-03T12:18:47;101854.64;;;13.50;80.79
73624;BME280;61921;53.226;-1.296;2023-02-03T12:21:15;101856.48;;;13.46;81.21
73624;BME280;61921;53.226;-1.296;2023-02-03T12:23:40;101851.53;;;13.66;80.66
73624;BME280;61921;53.226;-1.296;2023-02-03T12:26:07;101850.16;;;13.65;79.62
73624;BME280;61921;53.226;-1.296;2023-02-03T12:28:35;101849.64;;;13.89;78.95
73624;BME280;61921;53.226;-1.296;2023-02-03T12:30:51;101842.67;;;13.62;80.17
73624;BME280;61921;53.226;-1.296;2023-02-03T12:33:17;101842.60;;;13.79;79.55